x

8570283 - Ocean City Inlet, Md (ocim2) Weather Station

6:42am - Fri 26th May 2017 All times are EDT. -4 hours from GMT.

  • Wind
    10mph, 15mph gusts
  • Sea Temp 62°f
  • Air Temp 61°f
  • Sea Pressure 1004.9mb
  • 8570283 - Ocean City Inlet, Md
  • 8570283 - Ocean City Inlet, Md

More Historic Weather Station data

Upgrade to MSW Pro to gain access to the past 30 days of data for over 8000 Wavebouys and Weather Stations around the globe.

Join Pro

Comparision Forecast

View Surf forecast
   
Fri 05/26 6:42am 10 15 mph 1004.9mb 62f 61f
6:36am 11 15 mph 1004.9mb 62f 61f
6:30am 11 16 mph 1004.9mb 62f 60f
6:24am 13 18 mph 1004.8mb 62f 61f
6:18am 11 15 mph 1004.7mb 62f 61f
6:12am 9 11 mph 1004.6mb 62f 61f
6:06am 9 11 mph 1004.6mb 62f 60f
6:00am 11 15 mph 1004.6mb 62f 61f
5:54am 11 14 mph 1004.5mb 62f 61f
5:48am 11 17 mph 1004.3mb 62f 61f
5:42am 13 16 mph 1004.3mb 62f 60f
5:36am 14 17 mph 1004.1mb 62f 60f
5:30am 14 20 mph 1004mb 62f 60f
5:24am 13 15 mph 1003.8mb 62f 60f
5:18am 10 13 mph 1003.7mb 62f 60f
5:12am 11 14 mph 1003.6mb 62f 60f
5:06am 13 15 mph 1003.6mb 62f 60f
5:00am 13 16 mph 1003.5mb 62f 60f
4:54am 13 18 mph 1003.5mb 62f 60f
4:48am 14 16 mph - - -
4:42am 13 16 mph 1003.4mb 62f 60f
4:36am 13 16 mph 1003.3mb 62f 60f
4:30am 10 14 mph 1003.2mb 62f 60f
4:24am 11 14 mph 1003.1mb 62f 60f
4:18am 11 15 mph 1003mb 62f 60f
4:12am 11 16 mph 1002.9mb 62f 60f
4:06am 11 15 mph 1002.9mb 61f 61f
4:00am 14 16 mph 1002.7mb 61f 61f
3:54am 14 17 mph 1002.6mb 61f 61f
3:48am 13 17 mph 1002.6mb 61f 61f
3:42am 15 21 mph 1002.5mb 61f 61f
3:36am 13 16 mph 1002.6mb 61f 60f
3:30am 11 15 mph 1002.4mb 61f 60f
3:24am 11 15 mph 1002.3mb 61f 60f
3:18am 10 14 mph - - -
3:12am 11 14 mph 1002.2mb 61f 61f
3:06am 11 15 mph 1002mb 61f 61f
3:00am 14 17 mph 1002mb 61f 61f
2:54am 13 16 mph 1002.1mb 61f 61f
2:48am 14 17 mph 1002mb 61f 61f
2:42am 13 15 mph 1001.9mb 61f 61f
2:36am 14 18 mph 1001.8mb 61f 61f
2:30am 13 16 mph 1001.6mb 61f 61f
2:24am 14 18 mph 1001.5mb 61f 61f
2:18am 14 17 mph 1001.5mb 61f 61f
2:12am 10 13 mph 1001.5mb 61f 61f
2:06am 11 15 mph 1001.5mb 61f 61f
2:00am 13 16 mph 1001.4mb 61f 62f
1:54am 13 20 mph 1001.3mb 61f 62f
1:48am 11 15 mph 1001.3mb 61f 62f
1:42am 13 18 mph 1001.2mb 60f 62f
1:36am 11 17 mph 1001.1mb 60f 62f
1:30am 13 15 mph 1001.2mb 60f 62f
1:24am 15 21 mph 1001mb 60f 62f
1:18am 15 17 mph 1001mb 60f 62f
1:12am 15 21 mph 1001mb 60f 62f
1:06am 13 16 mph 1001mb 60f 62f
1:00am 15 17 mph 1000.9mb 60f 62f
12:54am 13 17 mph 1001mb 60f 62f
12:48am 14 18 mph 1000.9mb 60f 62f
12:42am 14 17 mph 1000.9mb 60f 62f
12:36am 14 18 mph 1000.9mb 60f 62f
12:30am 14 17 mph 1000.8mb 60f 62f
12:24am 14 17 mph 1000.7mb 60f 62f
12:18am 14 17 mph 1000.6mb 60f 62f
12:12am 14 16 mph 1000.6mb 60f 62f
12:06am 16 21 mph 1000.4mb 60f 62f
12:00am 15 22 mph 1000.3mb 60f 62f
Thu 05/25 11:54pm 15 18 mph 1000.4mb 60f 62f
11:48pm 11 15 mph 1000mb 60f 62f
11:42pm 10 14 mph 999.7mb 60f 62f
11:36pm 10 14 mph 999.7mb 61f 62f
11:30pm 13 15 mph 999.5mb 61f 62f
11:24pm 11 14 mph 999.5mb 61f 62f
11:18pm 11 15 mph 999.5mb 61f 62f
11:12pm 10 13 mph 999.5mb 61f 62f
11:06pm 10 14 mph 999.6mb 61f 62f
11:00pm 13 15 mph 999.8mb 61f 62f
10:54pm 11 15 mph 999.9mb 61f 61f
10:48pm 11 14 mph 999.9mb 61f 61f
10:42pm 10 13 mph 999.8mb 61f 61f
10:36pm 9 11 mph 999.8mb 61f 61f
10:30pm 9 13 mph 999.7mb 61f 61f
10:24pm 9 10 mph 999.6mb 61f 61f
10:18pm 9 10 mph 999.4mb 61f 61f
10:12pm 9 11 mph 999.2mb 61f 61f
10:06pm 10 14 mph 999mb 61f 61f
10:00pm 9 13 mph 998.8mb 61f 62f
9:54pm 13 15 mph 998.7mb 61f 62f
9:48pm 13 15 mph 998.7mb 61f 62f
9:42pm 9 14 mph 998.7mb 61f 62f
9:36pm 10 13 mph 998.7mb 61f 62f
9:30pm 10 14 mph 998.7mb 61f 61f
9:24pm 10 11 mph 998.7mb 61f 61f
9:18pm 9 11 mph 998.7mb 61f 61f
9:12pm 8 9 mph 998.6mb 61f 61f
9:06pm 5 6 mph 998.6mb 61f 61f
9:00pm 5 5 mph 998.6mb 62f 61f
8:54pm 3 5 mph 998.7mb 62f 62f
8:48pm 5 6 mph 998.8mb 62f 62f
8:42pm 6 7 mph 999.1mb 62f 62f
8:36pm 7 9 mph 999.1mb 62f 62f
8:30pm 8 10 mph 999.1mb 62f 62f
8:24pm 11 14 mph 999.1mb 62f 63f
8:18pm 16 21 mph - - -
8:12pm 17 23 mph 999.2mb 62f 63f
8:06pm 16 21 mph 999.3mb 62f 63f
8:00pm 17 25 mph 999mb 62f 64f
7:54pm 16 21 mph 999mb 62f 65f
7:48pm 17 22 mph 998.8mb 62f 66f
7:42pm 14 18 mph 998.8mb 62f 65f
7:36pm 10 14 mph 998.6mb 63f 65f
7:30pm 6 9 mph 998.6mb 63f 66f
7:24pm 14 17 mph 998.6mb 63f 64f
7:18pm 14 17 mph 998.2mb 63f 65f
7:12pm 15 18 mph 998.5mb 63f 64f
7:06pm 16 17 mph 998.5mb 63f 65f
7:00pm 17 21 mph 998.3mb 63f 64f
6:54pm 18 23 mph 998.3mb 63f 64f
6:48pm 17 20 mph 998.2mb 63f 63f
6:42pm 10 14 mph 998mb 63f 64f
6:36pm 9 13 mph 997.9mb 63f 64f
6:30pm 8 11 mph 997.9mb 63f 64f
6:24pm 9 10 mph 997.7mb 64f 64f
6:18pm 9 11 mph 997.8mb 64f 64f
6:12pm 13 15 mph 998.1mb 64f 64f
6:06pm 9 10 mph 998.1mb 64f 63f
6:00pm 7 9 mph 998mb 64f 63f
5:54pm 5 7 mph 997.7mb 64f 63f
5:48pm 6 8 mph 998mb 64f 64f
5:42pm 9 11 mph 998.1mb 64f 63f
5:36pm 9 11 mph 998.3mb 64f 63f
5:30pm 11 14 mph 998.3mb 64f 64f
5:24pm 10 13 mph 998.4mb 64f 63f
5:18pm 10 13 mph 998.4mb 64f 63f
5:12pm 10 11 mph 998.4mb 64f 64f
5:06pm 10 13 mph 998.6mb 64f 64f
5:00pm 11 13 mph 998.6mb 64f 64f
4:54pm 9 11 mph 998.5mb 64f 64f
4:48pm 7 8 mph 998.7mb 64f 64f
4:42pm 8 9 mph 998.9mb 64f 63f
4:36pm 8 10 mph 998.8mb 64f 63f
4:30pm 7 9 mph 998.8mb 64f 64f
4:24pm 8 10 mph 998.7mb 64f 63f
4:18pm 9 13 mph 998.7mb 64f 64f
4:12pm 8 13 mph 998.6mb 64f 64f
4:06pm 7 10 mph 998.4mb 64f 65f
4:00pm  -  mph - - 65f
3:54pm  -  mph - - 65f
3:48pm  -  mph - - 65f
3:42pm  -  mph - - 65f
3:36pm  -  mph - - 66f
3:30pm  -  mph - - 65f
3:24pm  -  mph - - 65f
3:18pm  -  mph - - 65f
3:12pm  -  mph - - 64f
3:06pm  -  mph - - 65f
3:00pm  -  mph - - 65f
2:54pm  -  mph - - 65f
2:48pm  -  mph - - 65f